Terre Haute, IN (47805)

10:44 AM EDT on August 29, 2015 (GMT -0400)
Us 41 N Vigo/Parke WA9THI | | Change Station
CLOSE
Current Station
Personal Weather Station
Location: Rosedale, IN
Elevation: 505 ft
Nearby Weather Stations

Elev 505 ft 39.61 °N, 87.37 °W | Updated 1 second ago

Partly Cloudy
Partly Cloudy
77.9 °F
Feels Like 80 °F
N
5.8
Wind Variable Wind from WSW
Gusts 5.8 mph

Today
High -- | Low -- °F
--% Chance of Precip.
Yesterday
High -- | Low -- °F
Precip. -- in
7:14 AM 8:25 PM
Full, 100% visible
Pressure 30.07 in
Visibility 10.0 miles
Clouds Few 6000 ft
Heat Index 80 °F
Dew Point 65 °F
Humidity 64%
Rainfall 0.00 in
Snow Depth Not available.
UV 3 out of 12
Pollen 9.90 out of 12
Air Quality Not available.
Flu Activity Not available.
METAR KHUF 291353Z 17005KT 10SM FEW060 22/18 A3008 RMK AO2 SLP183 T02220178
Pressure 30.07 in
Visibility 10.0 miles
Clouds Few 6000 ft
Heat Index 80 °F
Dew Point 65 °F
Humidity 64%
Rainfall 0.00 in
Snow Depth Not available.
UV 3 out of 12
Pollen 9.90 out of 12
Air Quality Not available.
Flu Activity Not available.
METAR KHUF 291353Z 17005KT 10SM FEW060 22/18 A3008 RMK AO2 SLP183 T02220178

10-Day Weather Forecast

×

Almanac

Astronomy

Aug. 29, 2015 Rise Set
Actual Time
Civil Twilight
Nautical Twilight
Astronomical Twilight
Moon
Length of Visible Light
Length of Day
Tomorrow will be .
, % of the Moon is Illuminated

Today's Extremes

State Highs State Lows

Community

WunderPhotos

Upload Photos

1,850,707 photos uploaded!

WunderBlogs® & News

Nearby

Air Quality

  Air Quality AQ Index Pollutant
Not available.

Snow Depth

Station Depth Elevation

Earthquake Activity

City Distance Mag. Time & Date
Minimum magnitude displayed is 2.5.

Coastal Water Temperatures

Place Temperature

Stations

Nearby Weather Stations

Station Location Temp. Windchill Dew Point Humidity Wind Precip. Elev Updated Type